Terminal Aerodrome Forecast
Issued by NWS

Home | Current Version | Previous Version | Text Only | Print | Product List | Glossary On
Versions: 1 2 3 4 5 6 7 8 9 10 11 12 13 14
000
FTUS41 KCAR 222300
TAFBHB
TAF
KBHB 222335Z 2300/2324 20008KT P6SM SCT250
     FM230700 21006KT 3SM BR SCT004
     FM231100 21010KT P6SM FEW060 SCT200
     FM232100 20012G20KT 6SM SHRA VCTS SCT035CB BKN070 OVC120
      AMD LTD TO CLD VIS AND WIND=

USA.gov is the U.S. government's official web portal to all federal, state and local government web resources and services.